createdAt,value
2022-10-05T00:01:26.212Z,5.28
2022-10-05T00:07:09.519Z,5.05
2022-10-05T00:12:31.236Z,5.60
2022-10-05T00:17:53.112Z,4.95
2022-10-05T00:23:18.974Z,5.35
2022-10-05T00:28:41.398Z,6.13
2022-10-05T00:34:03.327Z,6.45
2022-10-05T00:39:25.633Z,5.82
2022-10-05T00:44:51.514Z,4.97
2022-10-05T00:50:40.616Z,6.68
2022-10-05T00:56:39.161Z,6.68
2022-10-05T01:02:20.247Z,6.22
2022-10-05T01:07:58.758Z,5.93
2022-10-05T01:13:34.677Z,6.57
2022-10-05T01:19:25.726Z,7.40
2022-10-05T01:25:14.302Z,6.72
2022-10-05T01:31:19.589Z,5.90
2022-10-05T01:37:08.487Z,6.30
2022-10-05T01:42:37.998Z,5.97
2022-10-05T01:48:07.559Z,5.85
2022-10-05T01:53:41.538Z,6.10
2022-10-05T01:59:23.216Z,5.95
2022-10-05T02:05:01.933Z,5.78
2022-10-05T02:10:28.678Z,5.78
2022-10-05T02:16:02.609Z,6.43
2022-10-05T02:21:25.521Z,6.22
2022-10-05T02:26:50.139Z,6.15
2022-10-05T02:32:19.865Z,6.00
2022-10-05T02:38:08.541Z,6.20
2022-10-05T02:43:48.528Z,6.15
2022-10-05T02:49:33.042Z,6.93
2022-10-05T02:55:19.197Z,6.78
2022-10-05T03:00:47.776Z,6.30
2022-10-05T03:06:23.031Z,6.03
2022-10-05T03:12:30.263Z,6.87
2022-10-05T03:18:30.606Z,6.07
2022-10-05T03:24:17.343Z,6.22
2022-10-05T03:29:59.417Z,6.38
2022-10-05T03:35:29.846Z,6.82
2022-10-05T03:40:58.397Z,6.15
2022-10-05T03:46:39.708Z,6.82
2022-10-05T03:52:09.166Z,7.05
2022-10-05T03:57:38.784Z,7.10
2022-10-05T04:03:12.450Z,7.05
2022-10-05T04:08:47.811Z,7.20
2022-10-05T04:14:20.392Z,7.22
2022-10-05T04:20:00.792Z,7.70
2022-10-05T04:25:31.735Z,7.28
2022-10-05T04:30:54.530Z,7.03
2022-10-05T04:36:26.612Z,7.13
2022-10-05T04:42:19.115Z,7.25
2022-10-05T04:48:20.214Z,7.43
2022-10-05T04:53:53.531Z,7.20
2022-10-05T04:59:36.338Z,7.90
2022-10-05T05:05:28.806Z,7.57
2022-10-05T05:11:24.945Z,7.20
2022-10-05T05:17:13.474Z,7.55
2022-10-05T05:22:48.737Z,7.43
2022-10-05T05:28:18.467Z,7.35
2022-10-05T05:34:06.831Z,7.22
2022-10-05T05:39:49.506Z,7.97
2022-10-05T05:45:25.699Z,8.02
2022-10-05T05:51:20.915Z,6.75
2022-10-05T05:56:53.466Z,7.15
2022-10-05T06:02:19.908Z,7.27
2022-10-05T06:07:41.966Z,7.60
2022-10-05T06:13:11.440Z,7.03
2022-10-05T06:18:34.355Z,7.10
2022-10-05T06:24:12.702Z,7.43
2022-10-05T06:29:54.383Z,7.50
2022-10-05T06:35:40.722Z,7.33
2022-10-05T06:41:47.365Z,7.50
2022-10-05T06:47:45.609Z,7.43
2022-10-05T06:53:13.433Z,6.82
2022-10-05T06:59:02.261Z,7.65
2022-10-05T07:05:12.045Z,7.47
2022-10-05T07:10:51.496Z,7.77
2022-10-05T07:16:34.595Z,7.85
2022-10-05T07:22:22.094Z,7.85
2022-10-05T07:27:55.732Z,7.30
2022-10-05T07:33:24.805Z,8.35
2022-10-05T07:39:07.767Z,7.85
2022-10-05T07:44:43.308Z,7.53
2022-10-05T07:50:29.233Z,7.47
2022-10-05T07:55:54.539Z,7.88
2022-10-05T08:01:19.194Z,7.03
2022-10-05T08:06:49.187Z,7.57
2022-10-05T08:12:26.893Z,7.18
2022-10-05T08:17:55.214Z,7.60
2022-10-05T08:23:36.333Z,8.30
2022-10-05T08:29:33.631Z,8.23
2022-10-05T08:35:03.978Z,9.32
2022-10-05T08:40:45.895Z,9.70
2022-10-05T08:46:29.641Z,10.32
2022-10-05T08:51:54.315Z,9.70
2022-10-05T08:57:24.737Z,9.43
2022-10-05T09:03:22.971Z,8.55
2022-10-05T09:08:53.735Z,8.52
2022-10-05T09:14:27.546Z,9.38
2022-10-05T09:20:17.324Z,8.80
2022-10-05T09:26:05.461Z,8.43
2022-10-05T09:31:55.491Z,8.60
2022-10-05T09:37:29.820Z,7.70
2022-10-05T09:43:29.133Z,7.93
2022-10-05T09:49:06.122Z,7.70
2022-10-05T09:55:06.544Z,6.18
2022-10-05T10:00:59.547Z,6.32
2022-10-05T10:06:51.493Z,5.95
2022-10-05T10:12:42.055Z,7.63
2022-10-05T10:18:19.140Z,5.93
2022-10-05T10:23:43.533Z,5.28
2022-10-05T10:35:25.641Z,4.72
2022-10-05T10:41:09.069Z,4.97
2022-10-05T10:47:09.053Z,4.35
2022-10-05T10:53:04.508Z,4.57
2022-10-05T10:58:48.090Z,4.82
2022-10-05T11:04:40.331Z,4.38
2022-10-05T11:10:19.722Z,2.60
2022-10-05T11:15:56.857Z,2.00
2022-10-05T11:21:36.407Z,1.45
2022-10-05T11:27:20.096Z,1.75
2022-10-05T11:33:11.262Z,1.92
2022-10-05T11:38:52.253Z,1.77
2022-10-05T11:44:38.678Z,1.55
2022-10-05T11:50:12.370Z,1.63
2022-10-05T11:55:57.618Z,1.58
2022-10-05T12:01:34.515Z,1.55
2022-10-05T12:07:02.862Z,1.70
2022-10-05T12:12:29.943Z,1.70
2022-10-05T12:18:13.428Z,1.95
2022-10-05T12:23:47.009Z,2.17
2022-10-05T12:29:20.820Z,1.70
2022-10-05T12:35:01.696Z,1.35
2022-10-05T12:40:28.218Z,1.50
2022-10-05T12:45:53.028Z,1.67
2022-10-05T12:51:42.829Z,1.50
2022-10-05T12:57:46.537Z,1.50
2022-10-05T13:03:25.554Z,1.30
2022-10-05T13:09:03.641Z,1.05
2022-10-05T13:14:51.815Z,0.88
2022-10-05T13:20:46.881Z,0.98
2022-10-05T13:26:21.810Z,1.00
2022-10-05T13:31:47.964Z,1.00
2022-10-05T13:37:39.419Z,1.00
2022-10-05T13:43:32.289Z,1.13
2022-10-05T13:49:38.995Z,0.90
2022-10-05T13:55:16.795Z,1.15
2022-10-05T14:01:00.124Z,0.98
2022-10-05T14:06:30.635Z,0.80
2022-10-05T14:12:12.778Z,1.00
2022-10-05T14:17:40.950Z,0.90
2022-10-05T14:23:18.436Z,1.10
2022-10-05T14:28:57.626Z,1.05
2022-10-05T14:34:35.955Z,1.52
2022-10-05T14:40:20.286Z,1.63
2022-10-05T14:45:55.746Z,2.83
2022-10-05T14:51:31.883Z,1.92
2022-10-05T14:57:23.141Z,2.22
2022-10-05T15:02:59.914Z,2.15
2022-10-05T15:08:27.990Z,2.28
2022-10-05T15:13:50.114Z,2.00
2022-10-05T15:19:20.913Z,2.50
2022-10-05T15:25:01.697Z,2.47
2022-10-05T15:30:24.525Z,2.30
2022-10-05T15:36:09.605Z,1.80
2022-10-05T15:41:55.182Z,4.25
2022-10-05T15:47:39.088Z,2.10
2022-10-05T15:53:16.022Z,2.67
2022-10-05T15:58:49.942Z,2.30
2022-10-05T16:04:23.220Z,1.90
2022-10-05T16:10:13.555Z,1.95
2022-10-05T16:16:12.586Z,2.42
2022-10-05T16:21:54.056Z,3.10
2022-10-05T16:27:34.639Z,1.67
2022-10-05T16:32:59.382Z,2.05
2022-10-05T16:38:27.195Z,1.20
2022-10-05T16:44:06.850Z,1.23
2022-10-05T16:49:46.215Z,1.58
2022-10-05T16:55:20.000Z,1.88
2022-10-05T17:00:58.614Z,1.80
2022-10-05T17:06:35.292Z,1.92
2022-10-05T17:12:21.271Z,1.52
2022-10-05T17:18:18.446Z,1.60
2022-10-05T17:24:20.729Z,2.03
2022-10-05T17:29:51.768Z,2.20
2022-10-05T17:35:18.732Z,1.90
2022-10-05T17:41:01.039Z,1.27
2022-10-05T17:46:44.685Z,1.50
2022-10-05T17:52:46.568Z,1.98
2022-10-05T17:58:23.924Z,1.85
2022-10-05T18:03:51.436Z,2.42
2022-10-05T18:09:22.869Z,2.28
2022-10-05T18:14:55.269Z,1.92
2022-10-05T18:20:29.532Z,2.53
2022-10-05T18:26:13.763Z,2.88
2022-10-05T18:31:59.246Z,3.25
2022-10-05T18:37:27.041Z,2.85
2022-10-05T18:43:18.084Z,3.13
2022-10-05T18:48:50.744Z,2.70
2022-10-05T18:54:40.498Z,3.30
2022-10-05T19:00:29.169Z,4.55
2022-10-05T19:05:58.690Z,3.90
2022-10-05T19:11:51.150Z,3.78
2022-10-05T19:17:25.739Z,4.10
2022-10-05T19:22:56.491Z,3.90
2022-10-05T19:28:57.740Z,3.33
2022-10-05T19:34:39.406Z,3.25
2022-10-05T19:40:16.397Z,3.10
2022-10-05T19:45:46.321Z,3.53
2022-10-05T19:51:16.149Z,2.60
2022-10-05T19:56:49.527Z,2.22
2022-10-05T20:02:15.476Z,2.15
2022-10-05T20:07:37.530Z,2.20
2022-10-05T20:13:20.537Z,2.13
2022-10-05T20:19:01.010Z,1.98
2022-10-05T20:24:25.856Z,2.30
2022-10-05T20:29:47.657Z,2.45
2022-10-05T20:35:09.489Z,2.17
2022-10-05T20:40:31.285Z,2.40
2022-10-05T20:45:53.863Z,2.40
2022-10-05T20:51:17.924Z,2.53
2022-10-05T20:56:42.564Z,2.53
2022-10-05T21:02:05.192Z,2.22
2022-10-05T21:07:26.897Z,2.45
2022-10-05T21:12:48.918Z,2.00
2022-10-05T21:18:10.600Z,2.35
2022-10-05T21:23:35.370Z,2.28
2022-10-05T21:28:58.492Z,1.90
2022-10-05T21:34:20.236Z,2.20
2022-10-05T21:39:42.289Z,2.03
2022-10-05T21:45:04.392Z,1.90
2022-10-05T21:50:26.521Z,1.60
2022-10-05T21:55:50.695Z,1.80
2022-10-05T22:01:12.803Z,1.70
2022-10-05T22:06:35.326Z,1.83
2022-10-05T22:11:57.480Z,1.55
2022-10-05T22:17:30.870Z,1.75
2022-10-05T22:22:53.898Z,1.70
2022-10-05T22:28:16.555Z,1.77
2022-10-05T22:33:39.001Z,1.90
2022-10-05T22:39:00.762Z,1.90
2022-10-05T22:44:22.684Z,1.50
2022-10-05T22:49:44.479Z,1.60
2022-10-05T22:55:06.800Z,1.58
2022-10-05T23:00:53.391Z,2.05
2022-10-05T23:06:20.895Z,1.77
2022-10-05T23:11:42.622Z,1.73
2022-10-05T23:17:04.469Z,2.10
2022-10-05T23:22:26.381Z,1.45
2022-10-05T23:27:48.096Z,2.25
2022-10-05T23:33:09.980Z,1.90
2022-10-05T23:38:32.505Z,2.10
2022-10-05T23:43:57.227Z,1.98
2022-10-05T23:49:18.927Z,2.15
2022-10-05T23:54:40.731Z,2.20
